Time;durP1;ratioP1;P1;durP2;ratioP2;P2;SDS_P1;SDS_P2;PMS_P1;PMS_P2;Temp;Humidity;BMP_temperature;BMP_pressure;BME280_temperature;BME280_humidity;BME280_pressure;Samples;Min_cycle;Max_cycle;Signal;HPM_P1;HPM_P2
2023/10/17 00:04:32;;;;;;;3.07;2.53;;;8.40;36.00;;;;;;10377854;28;20234;-72
2023/10/17 00:09:37;;;;;;;2.77;2.57;;;8.40;36.10;;;;;;10382359;28;20230;-72
2023/10/17 00:14:46;;;;;;;2.80;2.60;;;8.50;36.20;;;;;;10387747;28;20238;-72
2023/10/17 00:19:52;;;;;;;2.90;2.70;;;8.40;36.20;;;;;;10394659;28;20319;-72
2023/10/17 00:25:03;;;;;;;2.90;2.70;;;8.40;36.20;;;;;;10393838;28;20922;-72
2023/10/17 00:30:16;;;;;;;3.00;2.73;;;8.40;36.30;;;;;;10389384;28;20234;-77
2023/10/17 00:35:19;;;;;;;2.90;2.70;;;8.40;36.40;;;;;;10386687;28;20226;-76
2023/10/17 00:40:43;;;;;;;3.10;2.90;;;8.40;36.30;;;;;;10386662;28;20249;-77
2023/10/17 00:45:48;;;;;;;2.80;2.60;;;8.40;36.30;;;;;;10388072;28;20233;-77
2023/10/17 00:50:57;;;;;;;2.60;2.40;;;8.40;36.30;;;;;;10385810;28;20284;-77
2023/10/17 00:56:00;;;;;;;3.10;2.90;;;8.40;36.20;;;;;;10390324;28;20218;-77
2023/10/17 01:01:15;;;;;;;2.87;2.67;;;8.40;36.20;;;;;;10388992;28;20729;-77
2023/10/17 01:06:35;;;;;;;2.80;2.60;;;8.40;36.30;;;;;;10388708;28;20229;-77
2023/10/17 01:11:38;;;;;;;2.70;2.50;;;8.30;36.10;;;;;;10385531;28;20239;-77
2023/10/17 01:16:45;;;;;;;2.90;2.70;;;8.30;36.00;;;;;;10379522;28;20954;-76
2023/10/17 01:21:49;;;;;;;3.20;2.90;;;8.30;36.20;;;;;;10384208;28;20336;-76
2023/10/17 01:26:53;;;;;;;2.30;2.20;;;8.20;36.00;;;;;;10379235;28;20312;-76
2023/10/17 01:31:57;;;;;;;2.93;2.73;;;8.20;36.20;;;;;;10388592;28;20615;-76
2023/10/17 01:37:00;;;;;;;3.87;3.03;;;8.20;36.20;;;;;;10373010;28;20218;-76
2023/10/17 01:42:05;;;;;;;3.10;2.90;;;8.10;36.00;;;;;;10385039;28;20238;-76
2023/10/17 01:47:08;;;;;;;3.17;2.87;;;8.10;36.00;;;;;;10383116;28;20229;-76
2023/10/17 01:52:12;;;;;;;3.07;2.60;;;8.00;36.00;;;;;;10381316;28;20232;-76
2023/10/17 01:57:17;;;;;;;3.13;2.83;;;7.90;36.00;;;;;;10383545;28;20226;-76
2023/10/17 02:02:23;;;;;;;2.57;2.37;;;7.90;36.00;;;;;;10380462;28;20763;-76
2023/10/17 02:07:26;;;;;;;2.70;2.50;;;7.80;36.00;;;;;;10383741;28;20234;-73
2023/10/17 02:12:32;;;;;;;2.90;2.40;;;7.80;36.10;;;;;;10381436;28;20842;-77
2023/10/17 02:17:36;;;;;;;2.40;2.30;;;7.70;36.10;;;;;;10382319;28;20237;-74
2023/10/17 02:22:44;;;;;;;2.60;2.40;;;7.70;36.10;;;;;;10379535;28;20237;-74
2023/10/17 02:27:51;;;;;;;2.70;2.50;;;7.70;36.00;;;;;;10380837;28;20242;-74
2023/10/17 02:32:54;;;;;;;2.53;2.33;;;7.70;36.10;;;;;;10381450;28;20575;-74
2023/10/17 02:37:58;;;;;;;2.00;1.80;;;7.60;36.00;;;;;;10379719;28;20233;-74
2023/10/17 02:43:02;;;;;;;2.20;2.10;;;7.60;36.00;;;;;;10375372;28;20231;-74
2023/10/17 02:48:23;;;;;;;2.00;1.90;;;7.50;36.00;;;;;;10382288;28;20230;-74
2023/10/17 02:53:29;;;;;;;2.00;1.90;;;7.50;36.00;;;;;;10377708;28;20239;-74
2023/10/17 02:58:36;;;;;;;1.90;1.80;;;7.40;36.00;;;;;;10385871;28;20225;-74
2023/10/17 03:03:40;;;;;;;1.97;1.87;;;7.40;36.10;;;;;;10376101;28;20225;-74
2023/10/17 03:08:49;;;;;;;1.90;1.80;;;7.30;36.00;;;;;;10376913;28;20233;-73
2023/10/17 03:13:56;;;;;;;4.40;1.83;;;7.30;36.00;;;;;;10379258;28;20225;-73
2023/10/17 03:18:59;;;;;;;2.50;2.30;;;7.30;36.00;;;;;;10373459;28;20229;-73
2023/10/17 03:24:10;;;;;;;2.20;2.10;;;7.20;35.90;;;;;;10380685;28;20214;-73
2023/10/17 03:29:19;;;;;;;2.10;2.00;;;7.20;36.00;;;;;;10375395;28;20313;-73
2023/10/17 03:34:34;;;;;;;2.50;2.30;;;7.10;35.90;;;;;;10378206;28;20245;-73
2023/10/17 03:39:50;;;;;;;2.13;2.03;;;7.10;35.80;;;;;;10386200;28;20324;-73
2023/10/17 03:44:55;;;;;;;2.23;2.13;;;7.00;35.90;;;;;;10387508;28;20282;-75
2023/10/17 03:50:06;;;;;;;2.20;2.10;;;6.90;36.00;;;;;;10389107;28;20237;-75
2023/10/17 03:55:10;;;;;;;2.37;2.27;;;6.90;35.90;;;;;;10389120;28;20230;-75
2023/10/17 04:00:25;;;;;;;2.10;2.00;;;6.80;35.90;;;;;;10387348;28;20233;-75
2023/10/17 04:05:28;;;;;;;2.33;2.13;;;6.80;36.20;;;;;;10391807;28;20233;-75
2023/10/17 04:10:46;;;;;;;3.20;2.37;;;6.80;36.10;;;;;;10388682;28;20234;-75
2023/10/17 04:15:53;;;;;;;2.47;2.33;;;6.70;36.00;;;;;;10384934;28;20233;-75
2023/10/17 04:21:12;;;;;;;3.07;2.87;;;6.70;36.30;;;;;;10382600;28;20767;-75
2023/10/17 04:26:19;;;;;;;2.60;2.40;;;6.70;36.20;;;;;;10382511;28;20227;-74
2023/10/17 04:31:28;;;;;;;2.17;2.07;;;6.70;36.40;;;;;;10385063;28;20831;-75
2023/10/17 04:36:35;;;;;;;2.40;2.30;;;6.70;36.40;;;;;;10374135;28;20228;-75
2023/10/17 04:42:04;;;;;;;2.50;1.93;;;6.70;36.20;;;;;;10381349;28;20967;-74
2023/10/17 04:52:41;;;;;;;2.70;2.50;;;6.60;36.90;;;;;;10366463;28;20230;-76
2023/10/17 04:57:58;;;;;;;2.20;2.00;;;6.70;37.00;;;;;;10385990;28;20255;-76
2023/10/17 05:03:13;;;;;;;2.30;2.10;;;6.90;36.90;;;;;;10386118;28;20282;-75
2023/10/17 05:08:31;;;;;;;2.50;2.33;;;6.90;36.50;;;;;;10379088;28;20222;-75
2023/10/17 06:18:18;;;;;;;2.30;2.20;;;6.80;36.40;;;;;;10382123;28;20271;-73
2023/10/17 06:24:06;;;;;;;4.63;2.40;;;6.70;36.50;;;;;;10378345;28;21172;-73
2023/10/17 06:28:49;;;;;;;2.97;2.77;;;6.70;36.70;;;;;;10383755;28;20244;-73
2023/10/17 06:33:55;;;;;;;3.20;2.80;;;6.70;36.70;;;;;;10384975;28;20230;-73
2023/10/17 06:39:07;;;;;;;2.30;2.20;;;6.60;36.70;;;;;;10382884;28;20787;-73
2023/10/17 06:44:11;;;;;;;2.63;2.47;;;6.60;36.90;;;;;;10379586;28;20221;-74
2023/10/17 06:49:29;;;;;;;3.10;2.90;;;6.70;37.10;;;;;;10382299;28;20229;-73
2023/10/17 06:54:41;;;;;;;3.00;2.80;;;6.70;37.10;;;;;;10379868;28;20743;-73
2023/10/17 06:59:44;;;;;;;4.77;3.30;;;6.70;37.50;;;;;;10383611;28;20228;-73
2023/10/17 07:04:49;;;;;;;3.10;2.90;;;6.70;37.20;;;;;;10378949;28;20221;-73
2023/10/17 07:10:16;;;;;;;3.23;2.97;;;6.80;37.30;;;;;;10376451;28;20237;-73
2023/10/17 07:15:19;;;;;;;3.37;3.07;;;6.80;37.60;;;;;;10382843;28;20301;-73
2023/10/17 07:21:14;;;;;;;2.97;2.77;;;6.80;37.60;;;;;;10378285;28;20237;-72
2023/10/17 07:25:57;;;;;;;3.20;2.90;;;6.90;37.80;;;;;;10376369;28;20226;-72
2023/10/17 07:31:00;;;;;;;4.53;2.77;;;6.90;38.10;;;;;;10385133;28;20379;-72
2023/10/17 07:36:06;;;;;;;3.30;3.03;;;7.00;38.00;;;;;;10382428;28;20226;-72
2023/10/17 07:41:14;;;;;;;3.43;3.13;;;7.10;38.20;;;;;;10381866;28;20238;-73
2023/10/17 07:46:18;;;;;;;3.23;2.90;;;7.10;38.50;;;;;;10384950;28;20236;-72
2023/10/17 07:51:22;;;;;;;3.40;3.10;;;7.20;38.20;;;;;;10377248;28;20889;-75
2023/10/17 07:56:27;;;;;;;3.27;2.87;;;7.30;38.60;;;;;;10382100;28;20240;-74
2023/10/17 08:01:33;;;;;;;2.77;2.57;;;7.40;38.80;;;;;;10384914;28;20758;-74
2023/10/17 08:06:37;;;;;;;3.20;2.90;;;7.50;38.80;;;;;;10377945;28;20242;-76
2023/10/17 08:11:42;;;;;;;5.07;3.40;;;7.60;38.90;;;;;;10382928;28;20324;-75
2023/10/17 08:16:48;;;;;;;3.67;3.37;;;7.70;39.00;;;;;;10382483;28;20225;-75
2023/10/17 08:22:10;;;;;;;3.50;3.20;;;7.90;39.20;;;;;;10384327;28;20909;-75
2023/10/17 08:27:17;;;;;;;4.10;3.30;;;8.00;39.30;;;;;;10391195;28;20225;-75
2023/10/17 08:37:44;;;;;;;3.43;3.13;;;8.30;39.50;;;;;;10381413;28;20847;-76
2023/10/17 08:42:50;;;;;;;3.97;3.60;;;8.40;39.50;;;;;;10386323;28;20715;-76
2023/10/17 08:47:59;;;;;;;3.77;3.47;;;8.50;39.70;;;;;;10386237;28;20749;-75
2023/10/17 08:53:06;;;;;;;3.57;3.20;;;8.60;39.70;;;;;;10383386;28;20226;-75
2023/10/17 08:58:11;;;;;;;3.50;3.20;;;8.70;39.90;;;;;;10390497;28;20256;-76
2023/10/17 09:03:23;;;;;;;4.00;2.87;;;8.90;40.00;;;;;;10388077;28;20232;-75
2023/10/17 09:08:44;;;;;;;4.07;2.80;;;9.00;40.40;;;;;;10389435;28;20782;-76
2023/10/17 09:19:11;;;;;;;4.27;2.80;;;9.40;40.30;;;;;;10386251;28;20656;-75
2023/10/17 09:24:32;;;;;;;3.47;2.90;;;9.60;39.80;;;;;;10387465;28;20240;-75
2023/10/17 09:29:49;;;;;;;3.77;2.97;;;9.80;39.90;;;;;;10386656;28;20236;-75
2023/10/17 09:34:54;;;;;;;4.17;3.60;;;9.90;39.60;;;;;;10381869;28;20246;-75
2023/10/17 09:40:03;;;;;;;2.90;2.60;;;10.10;38.80;;;;;;10385783;28;20229;-76
2023/10/17 09:45:09;;;;;;;3.17;2.97;;;10.30;38.80;;;;;;10383223;28;20631;-76
2023/10/17 09:50:34;;;;;;;3.00;2.80;;;10.50;38.50;;;;;;10383865;28;20230;-75
2023/10/17 09:55:43;;;;;;;3.20;2.90;;;10.70;38.50;;;;;;10375910;28;20316;-73
2023/10/17 10:00:52;;;;;;;3.30;3.00;;;10.90;38.60;;;;;;10377723;28;20233;-73
2023/10/17 10:06:13;;;;;;;4.60;3.17;;;11.00;37.90;;;;;;10372866;28;20238;-73
2023/10/17 10:11:16;;;;;;;3.50;3.20;;;11.10;38.00;;;;;;10382625;28;20399;-77
2023/10/17 10:16:21;;;;;;;3.17;2.87;;;11.30;37.80;;;;;;10378179;28;20222;-76
2023/10/17 10:21:59;;;;;;;3.13;2.83;;;11.40;37.80;;;;;;10376708;28;20945;-76
2023/10/17 10:27:26;;;;;;;3.20;2.90;;;11.50;37.90;;;;;;10375825;28;20225;-74
2023/10/17 10:32:33;;;;;;;3.23;2.80;;;11.70;37.60;;;;;;10370714;28;20375;-73
2023/10/17 10:37:52;;;;;;;3.47;2.77;;;11.90;37.70;;;;;;10369277;28;20222;-72
2023/10/17 10:42:58;;;;;;;3.23;2.93;;;12.00;37.40;;;;;;10375139;28;21035;-73
2023/10/17 10:48:04;;;;;;;3.40;3.10;;;12.10;37.30;;;;;;10372195;28;20234;-73
2023/10/17 10:53:29;;;;;;;3.33;3.03;;;12.20;37.10;;;;;;10371090;28;20224;-72
2023/10/17 10:58:35;;;;;;;3.07;2.80;;;12.30;37.00;;;;;;10373188;28;20272;-72
2023/10/17 11:03:42;;;;;;;2.80;2.60;;;12.50;37.10;;;;;;10376506;28;20229;-72
2023/10/17 11:08:47;;;;;;;3.37;3.07;;;12.50;36.90;;;;;;10369207;28;20312;-72
2023/10/17 11:13:54;;;;;;;6.27;3.00;;;12.60;37.50;;;;;;10372808;28;20226;-72
2023/10/17 11:18:59;;;;;;;4.40;3.00;;;12.70;36.70;;;;;;10370670;28;20230;-72
2023/10/17 11:24:06;;;;;;;3.57;2.90;;;12.80;36.30;;;;;;10372996;28;21134;-73
2023/10/17 11:29:10;;;;;;;4.10;3.03;;;12.80;36.30;;;;;;10369027;28;20667;-73
2023/10/17 11:34:16;;;;;;;3.10;2.80;;;12.80;36.10;;;;;;10373670;28;20244;-72
2023/10/17 11:39:20;;;;;;;3.17;2.87;;;12.90;36.20;;;;;;10371037;28;20222;-72
2023/10/17 11:44:24;;;;;;;6.53;3.27;;;12.90;36.40;;;;;;10369991;28;20830;-71
2023/10/17 11:49:31;;;;;;;3.57;3.20;;;13.00;37.10;;;;;;10373217;28;20645;-72
2023/10/17 11:54:55;;;;;;;4.47;3.00;;;13.00;35.90;;;;;;10369768;28;20229;-72
2023/10/17 12:00:01;;;;;;;2.83;2.63;;;13.00;36.20;;;;;;10375390;28;20241;-72
2023/10/17 12:05:06;;;;;;;3.33;2.90;;;13.10;36.20;;;;;;10381225;28;20237;-72
2023/10/17 12:10:10;;;;;;;3.00;2.80;;;13.10;36.20;;;;;;10378286;28;20770;-72
2023/10/17 12:15:14;;;;;;;3.40;3.10;;;13.20;36.10;;;;;;10379239;28;20635;-72
2023/10/17 12:20:19;;;;;;;3.30;3.00;;;13.20;36.00;;;;;;10371456;28;20236;-72
2023/10/17 12:25:23;;;;;;;4.37;3.20;;;13.30;35.60;;;;;;10379152;28;20727;-72
2023/10/17 12:30:27;;;;;;;3.80;2.87;;;13.30;35.90;;;;;;10369834;28;20233;-72
2023/10/17 12:35:33;;;;;;;3.23;2.90;;;13.40;35.90;;;;;;10374553;28;20230;-71
2023/10/17 12:40:38;;;;;;;3.83;3.20;;;13.40;35.30;;;;;;10390645;28;20230;-72
2023/10/17 12:45:41;;;;;;;3.73;3.40;;;13.40;35.70;;;;;;10390375;28;20320;-72
2023/10/17 12:50:46;;;;;;;4.97;4.03;;;13.40;35.70;;;;;;10385858;28;20230;-72
2023/10/17 12:55:49;;;;;;;3.30;3.00;;;13.40;36.10;;;;;;10391803;28;20770;-72
2023/10/17 13:00:52;;;;;;;3.50;3.00;;;13.40;35.50;;;;;;10382338;28;20276;-73
2023/10/17 13:05:57;;;;;;;4.40;3.17;;;13.40;36.60;;;;;;10388848;28;20275;-72
2023/10/17 13:11:02;;;;;;;3.87;3.57;;;13.60;37.40;;;;;;10387323;28;20244;-75
2023/10/17 13:16:06;;;;;;;4.70;3.10;;;13.80;36.50;;;;;;10382701;28;20214;-75
2023/10/17 13:21:14;;;;;;;4.47;3.30;;;13.90;36.00;;;;;;10385480;28;20886;-76
2023/10/17 13:26:19;;;;;;;3.00;2.70;;;14.00;35.60;;;;;;10391433;28;21013;-75
2023/10/17 13:31:22;;;;;;;4.30;3.00;;;14.00;35.90;;;;;;10390285;28;20320;-77
2023/10/17 13:36:27;;;;;;;4.10;3.50;;;14.10;36.30;;;;;;10383439;28;20226;-77
2023/10/17 13:41:30;;;;;;;3.97;3.30;;;14.20;35.40;;;;;;10387169;28;20226;-77
2023/10/17 13:46:35;;;;;;;3.33;3.03;;;14.20;35.40;;;;;;10390681;28;20217;-77
2023/10/17 13:51:46;;;;;;;4.40;3.83;;;14.20;35.30;;;;;;10389589;28;20415;-77
2023/10/17 13:56:49;;;;;;;3.43;3.13;;;14.20;34.90;;;;;;10387689;28;20241;-77
2023/10/17 14:01:53;;;;;;;4.03;3.60;;;14.20;35.00;;;;;;10389094;28;20237;-77
2023/10/17 14:06:57;;;;;;;4.97;4.47;;;14.20;34.90;;;;;;10383364;28;20230;-77
2023/10/17 14:12:02;;;;;;;3.97;3.57;;;14.10;34.70;;;;;;10385988;28;20234;-76
2023/10/17 14:17:06;;;;;;;4.10;3.77;;;14.10;35.00;;;;;;10382213;28;20293;-72
2023/10/17 14:22:20;;;;;;;4.97;3.47;;;14.10;35.00;;;;;;10387662;28;20222;-72
2023/10/17 14:27:29;;;;;;;3.70;3.40;;;14.00;34.80;;;;;;10385325;28;20715;-72
2023/10/17 14:32:33;;;;;;;3.80;3.40;;;14.10;34.90;;;;;;10383295;28;20232;-71
2023/10/17 14:37:39;;;;;;;3.37;3.07;;;14.00;34.80;;;;;;10386287;28;20672;-71
2023/10/17 14:42:44;;;;;;;3.73;3.43;;;13.90;34.80;;;;;;10385457;28;20719;-71
2023/10/17 14:47:48;;;;;;;3.43;3.17;;;13.90;34.90;;;;;;10384655;28;20256;-72
2023/10/17 14:52:53;;;;;;;3.90;3.50;;;13.90;34.90;;;;;;10383237;28;20226;-71
2023/10/17 14:57:56;;;;;;;4.10;3.80;;;13.90;34.80;;;;;;10382326;28;20822;-71
2023/10/17 15:03:00;;;;;;;3.67;3.37;;;13.80;35.00;;;;;;10382516;28;20229;-71
2023/10/17 15:08:11;;;;;;;4.53;3.90;;;13.80;35.00;;;;;;10385780;28;20222;-74
2023/10/17 15:13:14;;;;;;;3.50;3.30;;;13.70;34.70;;;;;;10382818;28;20279;-76
2023/10/17 15:18:17;;;;;;;3.80;3.50;;;13.60;35.00;;;;;;10378748;28;20249;-77
2023/10/17 15:23:22;;;;;;;4.20;3.80;;;13.60;35.20;;;;;;10381098;28;20232;-79
2023/10/17 15:28:25;;;;;;;5.50;3.90;;;13.60;35.20;;;;;;10385642;28;20794;-74
2023/10/17 15:33:28;;;;;;;4.40;4.00;;;13.50;35.10;;;;;;10379419;28;20663;-74
2023/10/17 15:38:33;;;;;;;4.03;3.67;;;13.50;35.20;;;;;;10391297;28;20225;-74
2023/10/17 15:43:37;;;;;;;4.97;4.53;;;13.50;35.20;;;;;;10396053;28;20245;-74
2023/10/17 15:48:42;;;;;;;5.20;4.80;;;13.50;35.40;;;;;;10390268;28;20237;-74
2023/10/17 15:53:47;;;;;;;6.60;4.57;;;13.50;35.40;;;;;;10388218;28;20228;-74
2023/10/17 15:58:52;;;;;;;5.07;4.40;;;13.50;35.20;;;;;;10395165;28;20229;-74
2023/10/17 16:03:55;;;;;;;6.67;6.07;;;13.50;35.40;;;;;;10393883;28;20247;-76
2023/10/17 16:09:00;;;;;;;4.97;4.50;;;13.50;35.30;;;;;;10393307;28;20767;-76
2023/10/17 16:14:04;;;;;;;4.50;4.10;;;13.50;35.20;;;;;;10393001;28;20320;-76
2023/10/17 16:19:07;;;;;;;3.60;3.30;;;13.50;35.10;;;;;;10394198;28;20731;-75
2023/10/17 16:24:12;;;;;;;3.80;3.50;;;13.40;34.90;;;;;;10388845;28;20234;-75
2023/10/17 16:29:15;;;;;;;4.63;4.23;;;13.30;35.10;;;;;;10388593;28;20226;-76
2023/10/17 16:34:19;;;;;;;3.80;3.43;;;13.20;35.00;;;;;;10382679;28;20224;-76
2023/10/17 16:39:25;;;;;;;3.90;3.60;;;13.10;35.00;;;;;;10390346;28;20230;-76
2023/10/17 16:44:30;;;;;;;5.13;4.17;;;13.00;35.10;;;;;;10391117;28;20225;-76
2023/10/17 16:49:35;;;;;;;4.33;3.97;;;13.00;35.10;;;;;;10388220;28;20230;-76
2023/10/17 16:54:40;;;;;;;3.90;3.60;;;12.90;35.10;;;;;;10391657;28;20684;-76
2023/10/17 16:59:44;;;;;;;4.23;3.83;;;12.80;35.10;;;;;;10392720;28;21324;-76
2023/10/17 17:04:50;;;;;;;3.50;3.20;;;12.80;35.30;;;;;;10390083;28;20268;-76
2023/10/17 17:09:56;;;;;;;3.60;3.30;;;12.70;35.00;;;;;;10388340;28;20233;-76
2023/10/17 17:14:59;;;;;;;5.33;4.67;;;12.60;34.60;;;;;;10391673;28;20280;-76
2023/10/17 17:20:03;;;;;;;4.40;4.00;;;12.50;34.50;;;;;;10385831;28;20775;-75
2023/10/17 17:25:13;;;;;;;3.40;3.10;;;12.40;34.60;;;;;;10391420;28;20228;-76
2023/10/17 17:30:19;;;;;;;3.93;3.63;;;12.30;35.60;;;;;;10384242;28;20222;-76
2023/10/17 17:35:23;;;;;;;5.43;4.23;;;12.10;34.90;;;;;;10373253;28;20236;-76
2023/10/17 17:40:31;;;;;;;3.53;3.23;;;12.00;34.90;;;;;;10371148;28;20260;-76
2023/10/17 17:45:34;;;;;;;4.30;3.70;;;12.00;35.00;;;;;;10371862;28;20234;-76
2023/10/17 17:50:39;;;;;;;4.43;4.13;;;11.90;35.00;;;;;;10373783;28;20664;-76
2023/10/17 17:55:48;;;;;;;4.47;4.07;;;11.80;35.10;;;;;;10373818;28;20257;-74
2023/10/17 18:00:54;;;;;;;4.90;4.40;;;11.70;35.00;;;;;;10374193;28;20256;-74
2023/10/17 18:05:57;;;;;;;4.10;3.80;;;11.70;35.00;;;;;;10374610;28;20703;-74
2023/10/17 18:11:03;;;;;;;5.90;5.40;;;11.70;34.90;;;;;;10372416;28;20228;-74
2023/10/17 18:16:06;;;;;;;5.20;4.80;;;11.60;34.70;;;;;;10370687;28;20239;-74
2023/10/17 18:21:12;;;;;;;8.17;7.47;;;11.40;34.50;;;;;;10377582;28;20305;-74
2023/10/17 18:26:20;;;;;;;7.40;6.70;;;11.20;34.70;;;;;;10381667;28;20226;-72
2023/10/17 18:31:23;;;;;;;9.47;8.40;;;11.00;34.90;;;;;;10379562;28;20230;-72
2023/10/17 18:36:27;;;;;;;12.13;10.93;;;11.00;35.10;;;;;;10380954;28;20225;-72
2023/10/17 18:41:37;;;;;;;10.43;9.33;;;10.90;35.10;;;;;;10381315;28;20237;-73
2023/10/17 18:46:42;;;;;;;9.90;9.00;;;10.90;35.10;;;;;;10369943;28;20229;-72
2023/10/17 18:51:45;;;;;;;10.77;9.73;;;10.90;35.00;;;;;;10380121;28;20225;-73
2023/10/17 18:56:50;;;;;;;8.80;8.00;;;10.90;34.90;;;;;;10373966;28;20249;-73
2023/10/17 19:01:53;;;;;;;9.07;8.17;;;10.80;34.80;;;;;;10375281;28;20320;-77
2023/10/17 19:07:01;;;;;;;9.50;8.60;;;10.80;34.90;;;;;;10380954;28;20307;-77
2023/10/17 19:12:07;;;;;;;11.40;9.60;;;10.80;34.90;;;;;;10371833;28;20317;-76
2023/10/17 19:17:12;;;;;;;7.87;7.17;;;10.70;34.80;;;;;;10378868;28;20240;-77
2023/10/17 19:22:15;;;;;;;8.87;7.90;;;10.70;34.60;;;;;;10377097;28;20973;-76
2023/10/17 19:27:19;;;;;;;8.63;7.67;;;10.60;34.40;;;;;;10376270;28;20222;-76
2023/10/17 19:32:23;;;;;;;8.50;7.70;;;10.60;34.40;;;;;;10376321;28;20233;-76
2023/10/17 19:37:26;;;;;;;8.23;7.43;;;10.50;34.40;;;;;;10378533;28;20233;-77
2023/10/17 19:42:31;;;;;;;10.03;9.03;;;10.40;34.40;;;;;;10377478;28;21375;-77
2023/10/17 19:47:35;;;;;;;7.93;7.13;;;10.40;34.30;;;;;;10381439;28;20229;-76
2023/10/17 19:52:38;;;;;;;10.27;9.23;;;10.30;34.40;;;;;;10375241;28;20240;-77
2023/10/17 19:57:43;;;;;;;8.33;7.33;;;10.30;34.50;;;;;;10375191;28;20241;-77
2023/10/17 20:02:46;;;;;;;8.20;7.40;;;10.20;34.60;;;;;;10375748;28;20229;-77
2023/10/17 20:07:50;;;;;;;8.57;7.67;;;10.20;34.60;;;;;;10376620;28;20240;-76
2023/10/17 20:12:55;;;;;;;8.67;7.70;;;10.10;34.60;;;;;;10375485;28;21647;-72
2023/10/17 20:17:58;;;;;;;7.60;6.80;;;10.00;34.50;;;;;;10372641;28;20279;-72
2023/10/17 20:23:03;;;;;;;8.43;7.63;;;10.00;34.50;;;;;;10380170;28;20719;-74
2023/10/17 20:28:08;;;;;;;8.83;8.03;;;10.00;34.50;;;;;;10383563;28;20229;-72
2023/10/17 20:33:12;;;;;;;10.10;8.67;;;9.90;35.40;;;;;;10380806;28;20344;-72
2023/10/17 20:38:16;;;;;;;12.30;10.60;;;9.90;35.40;;;;;;10383106;28;20253;-72
2023/10/17 20:43:21;;;;;;;9.30;8.40;;;9.80;35.30;;;;;;10385763;28;20303;-72
2023/10/17 20:48:25;;;;;;;6.80;6.20;;;9.80;35.30;;;;;;10385964;28;20233;-72
2023/10/17 20:53:31;;;;;;;7.23;6.53;;;9.70;35.20;;;;;;10384790;28;20233;-72
2023/10/17 20:58:35;;;;;;;6.87;6.17;;;9.60;35.10;;;;;;10381214;28;20230;-72
2023/10/17 21:03:39;;;;;;;6.27;5.77;;;9.60;35.20;;;;;;10383095;28;20218;-72
2023/10/17 21:08:43;;;;;;;5.80;5.30;;;9.50;35.10;;;;;;10383439;28;20725;-72
2023/10/17 21:13:48;;;;;;;4.07;3.77;;;9.40;34.90;;;;;;10376999;28;20230;-72
2023/10/17 21:18:51;;;;;;;4.10;3.70;;;9.30;35.10;;;;;;10379305;28;20237;-72
2023/10/17 21:23:54;;;;;;;3.50;3.30;;;9.20;35.20;;;;;;10382414;28;20736;-72
2023/10/17 21:28:59;;;;;;;3.10;2.90;;;9.10;35.30;;;;;;10386365;28;20268;-77
2023/10/17 21:34:03;;;;;;;3.37;3.10;;;9.00;35.40;;;;;;10379167;28;20226;-76
2023/10/17 21:39:07;;;;;;;3.10;2.90;;;9.00;35.50;;;;;;10378257;28;20239;-76
2023/10/17 21:44:11;;;;;;;4.30;3.93;;;8.90;35.50;;;;;;10383664;28;20872;-77
2023/10/17 21:49:15;;;;;;;4.27;3.97;;;8.80;35.50;;;;;;10382733;28;20316;-77
2023/10/17 21:54:18;;;;;;;3.90;3.60;;;8.80;35.50;;;;;;10381105;28;20776;-77
2023/10/17 21:59:22;;;;;;;4.67;4.27;;;8.70;35.50;;;;;;10383408;28;20226;-77
2023/10/17 22:04:25;;;;;;;4.37;3.93;;;8.70;35.80;;;;;;10385637;28;20225;-77
2023/10/17 22:09:29;;;;;;;5.13;4.63;;;8.60;35.80;;;;;;10384107;28;20307;-77
2023/10/17 22:14:34;;;;;;;5.03;4.63;;;8.60;35.90;;;;;;10382543;28;20268;-76
2023/10/17 22:19:37;;;;;;;5.87;5.37;;;8.60;36.00;;;;;;10378185;28;20343;-77
2023/10/17 22:24:41;;;;;;;4.90;4.40;;;8.50;35.70;;;;;;10378724;28;20226;-77
2023/10/17 22:29:58;;;;;;;5.33;4.83;;;8.50;35.80;;;;;;10380862;28;20227;-74
2023/10/17 22:35:04;;;;;;;5.50;4.77;;;8.40;35.90;;;;;;10380307;28;20228;-74
2023/10/17 22:40:11;;;;;;;5.63;5.13;;;8.30;35.80;;;;;;10381192;28;20230;-74
2023/10/17 22:45:17;;;;;;;5.00;4.50;;;8.30;35.90;;;;;;10383461;28;20264;-74
2023/10/17 22:50:20;;;;;;;5.13;4.73;;;8.30;36.00;;;;;;10382844;28;20224;-75
2023/10/17 22:55:23;;;;;;;5.37;4.93;;;8.30;36.00;;;;;;10381328;28;20222;-74
2023/10/17 23:00:28;;;;;;;4.60;4.20;;;8.30;35.80;;;;;;10380098;28;20233;-75
2023/10/17 23:05:32;;;;;;;4.90;4.53;;;8.30;35.80;;;;;;10385154;28;20854;-75
2023/10/17 23:10:37;;;;;;;4.83;4.37;;;8.20;35.80;;;;;;10380699;28;20603;-75
2023/10/17 23:15:42;;;;;;;4.30;3.90;;;8.20;35.90;;;;;;10381987;28;20256;-74
2023/10/17 23:20:45;;;;;;;3.80;3.50;;;8.10;35.80;;;;;;10373696;28;20747;-75
2023/10/17 23:25:48;;;;;;;4.63;4.23;;;8.10;35.80;;;;;;10378984;28;20713;-75
2023/10/17 23:30:53;;;;;;;4.53;4.13;;;8.10;35.80;;;;;;10381158;28;20252;-74
2023/10/17 23:35:56;;;;;;;4.83;4.43;;;8.10;35.80;;;;;;10380356;28;20813;-75
2023/10/17 23:41:00;;;;;;;4.30;4.00;;;8.10;35.70;;;;;;10380895;28;21205;-75
2023/10/17 23:46:04;;;;;;;4.10;3.80;;;8.10;35.70;;;;;;10380112;28;20230;-75
2023/10/17 23:51:08;;;;;;;3.60;3.40;;;8.00;35.70;;;;;;10382885;28;20232;-75
2023/10/17 23:56:13;;;;;;;3.57;3.37;;;8.00;35.50;;;;;;10382210;28;20221;-75
